sensor_id;sensor_type;location;lat;lon;timestamp;P1;durP1;ratioP1;P2;durP2;ratioP2
61640;SDS011;62201;49.966;8.342;2023-03-12T00:00:16;24.63;;;13.30;;
61640;SDS011;62201;49.966;8.342;2023-03-12T00:02:42;25.47;;;12.60;;
61640;SDS011;62201;49.966;8.342;2023-03-12T00:05:07;22.73;;;11.93;;
61640;SDS011;62201;49.966;8.342;2023-03-12T00:07:33;17.43;;;10.63;;
61640;SDS011;62201;49.966;8.342;2023-03-12T00:10:00;22.67;;;11.63;;
61640;SDS011;62201;49.966;8.342;2023-03-12T00:12:26;23.60;;;11.37;;
61640;SDS011;62201;49.966;8.342;2023-03-12T00:14:51;20.67;;;10.57;;
61640;SDS011;62201;49.966;8.342;2023-03-12T00:17:16;20.67;;;10.40;;
61640;SDS011;62201;49.966;8.342;2023-03-12T00:19:42;16.90;;;9.90;;
61640;SDS011;62201;49.966;8.342;2023-03-12T00:22:09;20.97;;;9.83;;
61640;SDS011;62201;49.966;8.342;2023-03-12T00:24:34;18.47;;;8.73;;
61640;SDS011;62201;49.966;8.342;2023-03-12T00:26:59;22.30;;;9.30;;
61640;SDS011;62201;49.966;8.342;2023-03-12T00:29:25;18.20;;;9.17;;
61640;SDS011;62201;49.966;8.342;2023-03-12T00:31:50;19.93;;;8.77;;
61640;SDS011;62201;49.966;8.342;2023-03-12T00:34:16;16.60;;;8.63;;
61640;SDS011;62201;49.966;8.342;2023-03-12T00:36:41;19.83;;;9.00;;
61640;SDS011;62201;49.966;8.342;2023-03-12T00:39:06;19.37;;;10.57;;
61640;SDS011;62201;49.966;8.342;2023-03-12T00:41:32;23.33;;;10.90;;
61640;SDS011;62201;49.966;8.342;2023-03-12T00:43:57;28.27;;;15.40;;
61640;SDS011;62201;49.966;8.342;2023-03-12T00:46:23;41.33;;;19.87;;
61640;SDS011;62201;49.966;8.342;2023-03-12T00:48:48;37.07;;;17.20;;
61640;SDS011;62201;49.966;8.342;2023-03-12T00:51:14;27.03;;;13.27;;
61640;SDS011;62201;49.966;8.342;2023-03-12T00:53:39;24.70;;;11.20;;
61640;SDS011;62201;49.966;8.342;2023-03-12T00:56:05;17.67;;;9.30;;
61640;SDS011;62201;49.966;8.342;2023-03-12T00:58:30;18.40;;;9.90;;
61640;SDS011;62201;49.966;8.342;2023-03-12T01:00:56;19.97;;;10.10;;
61640;SDS011;62201;49.966;8.342;2023-03-12T01:03:21;18.20;;;8.87;;
61640;SDS011;62201;49.966;8.342;2023-03-12T01:05:47;15.17;;;8.53;;
61640;SDS011;62201;49.966;8.342;2023-03-12T01:08:17;18.27;;;8.20;;
61640;SDS011;62201;49.966;8.342;2023-03-12T01:10:43;17.47;;;8.20;;
61640;SDS011;62201;49.966;8.342;2023-03-12T01:13:09;17.13;;;7.63;;
61640;SDS011;62201;49.966;8.342;2023-03-12T01:15:34;22.83;;;9.10;;
61640;SDS011;62201;49.966;8.342;2023-03-12T01:18:00;17.00;;;8.03;;
61640;SDS011;62201;49.966;8.342;2023-03-12T01:20:25;18.47;;;8.60;;
61640;SDS011;62201;49.966;8.342;2023-03-12T01:22:50;19.57;;;9.70;;
61640;SDS011;62201;49.966;8.342;2023-03-12T01:25:16;19.93;;;9.50;;
61640;SDS011;62201;49.966;8.342;2023-03-12T01:27:41;23.10;;;10.57;;
61640;SDS011;62201;49.966;8.342;2023-03-12T01:30:07;19.10;;;9.87;;
61640;SDS011;62201;49.966;8.342;2023-03-12T01:32:34;22.33;;;10.70;;
61640;SDS011;62201;49.966;8.342;2023-03-12T01:34:59;24.70;;;11.57;;
61640;SDS011;62201;49.966;8.342;2023-03-12T01:37:25;23.90;;;11.10;;
61640;SDS011;62201;49.966;8.342;2023-03-12T01:39:51;25.17;;;11.00;;
61640;SDS011;62201;49.966;8.342;2023-03-12T01:42:16;18.23;;;10.77;;
61640;SDS011;62201;49.966;8.342;2023-03-12T01:44:49;21.07;;;10.90;;
61640;SDS011;62201;49.966;8.342;2023-03-12T01:47:19;18.70;;;10.23;;
61640;SDS011;62201;49.966;8.342;2023-03-12T01:49:44;17.40;;;9.33;;
61640;SDS011;62201;49.966;8.342;2023-03-12T01:52:15;22.13;;;10.37;;
61640;SDS011;62201;49.966;8.342;2023-03-12T01:57:20;17.87;;;8.83;;
61640;SDS011;62201;49.966;8.342;2023-03-12T01:59:55;18.90;;;8.23;;
61640;SDS011;62201;49.966;8.342;2023-03-12T02:02:23;22.00;;;8.63;;
61640;SDS011;62201;49.966;8.342;2023-03-12T02:05:03;20.40;;;8.30;;
61640;SDS011;62201;49.966;8.342;2023-03-12T02:07:38;19.07;;;8.47;;
61640;SDS011;62201;49.966;8.342;2023-03-12T02:10:04;17.23;;;7.30;;
61640;SDS011;62201;49.966;8.342;2023-03-12T02:12:30;14.37;;;7.90;;
61640;SDS011;62201;49.966;8.342;2023-03-12T02:14:55;18.57;;;8.60;;
61640;SDS011;62201;49.966;8.342;2023-03-12T02:17:21;15.97;;;8.87;;
61640;SDS011;62201;49.966;8.342;2023-03-12T02:19:58;15.50;;;8.13;;
61640;SDS011;62201;49.966;8.342;2023-03-12T02:22:35;21.73;;;9.17;;
61640;SDS011;62201;49.966;8.342;2023-03-12T02:27:52;18.13;;;9.00;;
61640;SDS011;62201;49.966;8.342;2023-03-12T02:30:18;18.13;;;8.53;;
61640;SDS011;62201;49.966;8.342;2023-03-12T02:32:44;18.73;;;8.43;;
61640;SDS011;62201;49.966;8.342;2023-03-12T02:35:12;17.87;;;8.77;;
61640;SDS011;62201;49.966;8.342;2023-03-12T02:40:49;16.53;;;8.33;;
61640;SDS011;62201;49.966;8.342;2023-03-12T02:43:16;19.97;;;8.57;;
61640;SDS011;62201;49.966;8.342;2023-03-12T02:45:44;18.23;;;7.97;;
61640;SDS011;62201;49.966;8.342;2023-03-12T02:48:10;17.23;;;8.60;;
61640;SDS011;62201;49.966;8.342;2023-03-12T02:50:35;14.63;;;7.83;;
61640;SDS011;62201;49.966;8.342;2023-03-12T02:53:00;17.60;;;7.87;;
61640;SDS011;62201;49.966;8.342;2023-03-12T02:55:26;16.73;;;7.30;;
61640;SDS011;62201;49.966;8.342;2023-03-12T02:57:51;14.73;;;7.67;;
61640;SDS011;62201;49.966;8.342;2023-03-12T03:00:17;17.67;;;8.10;;
61640;SDS011;62201;49.966;8.342;2023-03-12T03:02:43;16.40;;;8.00;;
61640;SDS011;62201;49.966;8.342;2023-03-12T03:05:09;18.93;;;7.97;;
61640;SDS011;62201;49.966;8.342;2023-03-12T03:07:35;16.20;;;7.70;;
61640;SDS011;62201;49.966;8.342;2023-03-12T03:10:00;19.87;;;8.97;;
61640;SDS011;62201;49.966;8.342;2023-03-12T03:12:29;14.83;;;8.30;;
61640;SDS011;62201;49.966;8.342;2023-03-12T03:14:55;17.23;;;9.00;;
61640;SDS011;62201;49.966;8.342;2023-03-12T03:17:20;16.00;;;8.00;;
61640;SDS011;62201;49.966;8.342;2023-03-12T03:19:48;18.00;;;8.47;;
61640;SDS011;62201;49.966;8.342;2023-03-12T03:22:14;20.57;;;8.60;;
61640;SDS011;62201;49.966;8.342;2023-03-12T03:24:40;15.43;;;7.50;;
61640;SDS011;62201;49.966;8.342;2023-03-12T03:27:05;16.80;;;8.10;;
61640;SDS011;62201;49.966;8.342;2023-03-12T03:29:31;16.33;;;7.57;;
61640;SDS011;62201;49.966;8.342;2023-03-12T03:31:56;16.10;;;7.70;;
61640;SDS011;62201;49.966;8.342;2023-03-12T03:34:21;19.37;;;7.60;;
61640;SDS011;62201;49.966;8.342;2023-03-12T03:36:47;13.67;;;7.27;;
61640;SDS011;62201;49.966;8.342;2023-03-12T03:39:12;17.93;;;7.10;;
61640;SDS011;62201;49.966;8.342;2023-03-12T03:41:37;14.03;;;7.17;;
61640;SDS011;62201;49.966;8.342;2023-03-12T03:44:03;20.23;;;7.57;;
61640;SDS011;62201;49.966;8.342;2023-03-12T03:46:29;14.93;;;7.00;;
61640;SDS011;62201;49.966;8.342;2023-03-12T03:48:55;17.07;;;7.30;;
61640;SDS011;62201;49.966;8.342;2023-03-12T03:51:21;14.83;;;7.50;;
61640;SDS011;62201;49.966;8.342;2023-03-12T03:53:46;16.67;;;7.60;;
61640;SDS011;62201;49.966;8.342;2023-03-12T03:56:13;13.43;;;7.30;;
61640;SDS011;62201;49.966;8.342;2023-03-12T03:58:39;14.27;;;7.80;;
61640;SDS011;62201;49.966;8.342;2023-03-12T04:01:05;15.13;;;7.53;;
61640;SDS011;62201;49.966;8.342;2023-03-12T04:03:31;14.27;;;7.10;;
61640;SDS011;62201;49.966;8.342;2023-03-12T04:06:01;15.43;;;7.37;;
61640;SDS011;62201;49.966;8.342;2023-03-12T04:08:28;15.00;;;7.50;;
61640;SDS011;62201;49.966;8.342;2023-03-12T04:10:54;14.27;;;7.63;;
61640;SDS011;62201;49.966;8.342;2023-03-12T04:13:20;16.67;;;7.97;;
61640;SDS011;62201;49.966;8.342;2023-03-12T04:15:49;16.37;;;7.47;;
61640;SDS011;62201;49.966;8.342;2023-03-12T04:18:16;19.60;;;7.47;;
61640;SDS011;62201;49.966;8.342;2023-03-12T04:20:42;14.83;;;7.50;;
61640;SDS011;62201;49.966;8.342;2023-03-12T04:23:07;12.67;;;6.93;;
61640;SDS011;62201;49.966;8.342;2023-03-12T04:25:33;11.33;;;6.70;;
61640;SDS011;62201;49.966;8.342;2023-03-12T04:27:58;17.37;;;7.10;;
61640;SDS011;62201;49.966;8.342;2023-03-12T04:30:23;13.17;;;7.13;;
61640;SDS011;62201;49.966;8.342;2023-03-12T04:32:49;16.23;;;6.97;;
61640;SDS011;62201;49.966;8.342;2023-03-12T04:35:14;11.90;;;6.60;;
61640;SDS011;62201;49.966;8.342;2023-03-12T04:37:40;15.70;;;6.57;;
61640;SDS011;62201;49.966;8.342;2023-03-12T04:40:05;13.80;;;6.67;;
61640;SDS011;62201;49.966;8.342;2023-03-12T04:42:35;12.70;;;6.90;;
61640;SDS011;62201;49.966;8.342;2023-03-12T04:45:00;15.67;;;7.13;;
61640;SDS011;62201;49.966;8.342;2023-03-12T04:47:27;19.40;;;7.60;;
61640;SDS011;62201;49.966;8.342;2023-03-12T04:49:54;15.70;;;7.03;;
61640;SDS011;62201;49.966;8.342;2023-03-12T04:52:23;15.27;;;7.40;;
61640;SDS011;62201;49.966;8.342;2023-03-12T04:54:48;13.63;;;6.83;;
61640;SDS011;62201;49.966;8.342;2023-03-12T04:57:15;13.50;;;6.30;;
61640;SDS011;62201;49.966;8.342;2023-03-12T04:59:40;11.37;;;6.80;;
61640;SDS011;62201;49.966;8.342;2023-03-12T05:02:05;18.57;;;7.30;;
61640;SDS011;62201;49.966;8.342;2023-03-12T05:04:31;18.87;;;7.10;;
61640;SDS011;62201;49.966;8.342;2023-03-12T05:06:56;16.93;;;7.10;;
61640;SDS011;62201;49.966;8.342;2023-03-12T05:09:22;19.37;;;6.87;;
61640;SDS011;62201;49.966;8.342;2023-03-12T05:11:47;13.40;;;6.50;;
61640;SDS011;62201;49.966;8.342;2023-03-12T05:14:12;10.40;;;6.00;;
61640;SDS011;62201;49.966;8.342;2023-03-12T05:16:38;15.07;;;7.37;;
61640;SDS011;62201;49.966;8.342;2023-03-12T05:19:03;10.93;;;6.37;;
61640;SDS011;62201;49.966;8.342;2023-03-12T05:21:29;11.17;;;6.20;;
61640;SDS011;62201;49.966;8.342;2023-03-12T05:23:55;13.40;;;6.40;;
61640;SDS011;62201;49.966;8.342;2023-03-12T05:26:21;12.00;;;6.00;;
61640;SDS011;62201;49.966;8.342;2023-03-12T05:28:48;13.00;;;6.33;;
61640;SDS011;62201;49.966;8.342;2023-03-12T05:31:14;12.83;;;6.60;;
61640;SDS011;62201;49.966;8.342;2023-03-12T05:33:40;13.97;;;6.40;;
61640;SDS011;62201;49.966;8.342;2023-03-12T05:36:05;14.87;;;6.70;;
61640;SDS011;62201;49.966;8.342;2023-03-12T05:38:31;14.43;;;6.13;;
61640;SDS011;62201;49.966;8.342;2023-03-12T05:40:57;13.93;;;6.57;;
61640;SDS011;62201;49.966;8.342;2023-03-12T05:43:23;13.10;;;6.20;;
61640;SDS011;62201;49.966;8.342;2023-03-12T05:45:50;14.77;;;6.60;;
61640;SDS011;62201;49.966;8.342;2023-03-12T05:48:16;10.77;;;5.70;;
61640;SDS011;62201;49.966;8.342;2023-03-12T05:50:41;12.53;;;6.50;;
61640;SDS011;62201;49.966;8.342;2023-03-12T05:53:07;10.43;;;6.20;;
61640;SDS011;62201;49.966;8.342;2023-03-12T05:55:34;14.20;;;5.97;;
61640;SDS011;62201;49.966;8.342;2023-03-12T05:58:03;10.43;;;5.80;;
61640;SDS011;62201;49.966;8.342;2023-03-12T06:00:29;10.40;;;5.47;;
61640;SDS011;62201;49.966;8.342;2023-03-12T06:02:55;14.97;;;5.27;;
61640;SDS011;62201;49.966;8.342;2023-03-12T06:05:20;10.93;;;5.37;;
61640;SDS011;62201;49.966;8.342;2023-03-12T06:07:46;12.37;;;5.40;;
61640;SDS011;62201;49.966;8.342;2023-03-12T06:10:11;11.70;;;5.20;;
61640;SDS011;62201;49.966;8.342;2023-03-12T06:12:37;12.13;;;5.27;;
61640;SDS011;62201;49.966;8.342;2023-03-12T06:15:02;12.90;;;4.97;;
61640;SDS011;62201;49.966;8.342;2023-03-12T06:17:29;12.37;;;5.47;;
61640;SDS011;62201;49.966;8.342;2023-03-12T06:19:56;10.63;;;5.30;;
61640;SDS011;62201;49.966;8.342;2023-03-12T06:22:21;10.97;;;5.33;;
61640;SDS011;62201;49.966;8.342;2023-03-12T06:24:47;12.73;;;5.73;;
61640;SDS011;62201;49.966;8.342;2023-03-12T06:27:13;11.07;;;5.63;;
61640;SDS011;62201;49.966;8.342;2023-03-12T06:29:39;10.60;;;5.80;;
61640;SDS011;62201;49.966;8.342;2023-03-12T06:32:05;15.97;;;5.57;;
61640;SDS011;62201;49.966;8.342;2023-03-12T06:34:30;13.77;;;5.67;;
61640;SDS011;62201;49.966;8.342;2023-03-12T06:36:56;11.07;;;5.40;;
61640;SDS011;62201;49.966;8.342;2023-03-12T06:39:21;13.20;;;5.00;;
61640;SDS011;62201;49.966;8.342;2023-03-12T06:41:47;12.17;;;5.40;;
61640;SDS011;62201;49.966;8.342;2023-03-12T06:44:12;10.87;;;5.80;;
61640;SDS011;62201;49.966;8.342;2023-03-12T06:46:38;16.10;;;5.87;;
61640;SDS011;62201;49.966;8.342;2023-03-12T06:49:03;14.07;;;5.73;;
61640;SDS011;62201;49.966;8.342;2023-03-12T06:51:29;15.20;;;6.70;;
61640;SDS011;62201;49.966;8.342;2023-03-12T06:53:55;12.50;;;5.87;;
61640;SDS011;62201;49.966;8.342;2023-03-12T06:56:20;12.73;;;5.73;;
61640;SDS011;62201;49.966;8.342;2023-03-12T06:58:46;15.37;;;6.77;;
61640;SDS011;62201;49.966;8.342;2023-03-12T07:01:11;15.57;;;7.00;;
61640;SDS011;62201;49.966;8.342;2023-03-12T07:03:36;11.43;;;6.10;;
61640;SDS011;62201;49.966;8.342;2023-03-12T07:06:02;13.60;;;6.60;;
61640;SDS011;62201;49.966;8.342;2023-03-12T07:08:27;14.80;;;7.57;;
61640;SDS011;62201;49.966;8.342;2023-03-12T07:10:56;11.30;;;6.03;;
61640;SDS011;62201;49.966;8.342;2023-03-12T07:13:22;12.33;;;6.87;;
61640;SDS011;62201;49.966;8.342;2023-03-12T07:15:48;23.80;;;7.30;;
61640;SDS011;62201;49.966;8.342;2023-03-12T07:18:13;12.93;;;7.30;;
61640;SDS011;62201;49.966;8.342;2023-03-12T07:20:40;16.37;;;7.50;;
61640;SDS011;62201;49.966;8.342;2023-03-12T07:23:06;17.40;;;8.10;;
61640;SDS011;62201;49.966;8.342;2023-03-12T07:25:35;17.10;;;8.60;;
61640;SDS011;62201;49.966;8.342;2023-03-12T07:28:02;19.00;;;8.90;;
61640;SDS011;62201;49.966;8.342;2023-03-12T07:30:28;16.97;;;8.60;;
61640;SDS011;62201;49.966;8.342;2023-03-12T07:32:57;20.83;;;8.50;;
61640;SDS011;62201;49.966;8.342;2023-03-12T07:35:25;20.27;;;9.60;;
61640;SDS011;62201;49.966;8.342;2023-03-12T07:37:51;17.53;;;10.40;;
61640;SDS011;62201;49.966;8.342;2023-03-12T07:40:16;22.27;;;11.20;;
61640;SDS011;62201;49.966;8.342;2023-03-12T07:42:41;19.73;;;10.47;;
61640;SDS011;62201;49.966;8.342;2023-03-12T07:45:07;22.07;;;9.30;;
61640;SDS011;62201;49.966;8.342;2023-03-12T07:47:33;17.23;;;9.13;;
61640;SDS011;62201;49.966;8.342;2023-03-12T07:49:58;19.23;;;9.23;;
61640;SDS011;62201;49.966;8.342;2023-03-12T07:52:24;19.10;;;9.43;;
61640;SDS011;62201;49.966;8.342;2023-03-12T07:54:50;19.97;;;9.97;;
61640;SDS011;62201;49.966;8.342;2023-03-12T07:57:16;18.67;;;9.70;;
61640;SDS011;62201;49.966;8.342;2023-03-12T07:59:42;15.33;;;9.73;;
61640;SDS011;62201;49.966;8.342;2023-03-12T08:02:08;20.43;;;9.80;;
61640;SDS011;62201;49.966;8.342;2023-03-12T08:04:34;24.10;;;12.53;;
61640;SDS011;62201;49.966;8.342;2023-03-12T08:07:00;32.20;;;19.87;;
61640;SDS011;62201;49.966;8.342;2023-03-12T08:09:26;23.80;;;12.40;;
61640;SDS011;62201;49.966;8.342;2023-03-12T08:11:51;29.37;;;12.70;;
61640;SDS011;62201;49.966;8.342;2023-03-12T08:14:16;22.07;;;12.10;;
61640;SDS011;62201;49.966;8.342;2023-03-12T08:16:42;24.30;;;12.67;;
61640;SDS011;62201;49.966;8.342;2023-03-12T08:19:07;20.83;;;10.47;;
61640;SDS011;62201;49.966;8.342;2023-03-12T08:21:32;18.23;;;11.93;;
61640;SDS011;62201;49.966;8.342;2023-03-12T08:23:58;18.70;;;12.20;;
61640;SDS011;62201;49.966;8.342;2023-03-12T08:26:23;22.53;;;11.50;;
61640;SDS011;62201;49.966;8.342;2023-03-12T08:28:49;24.83;;;13.07;;
61640;SDS011;62201;49.966;8.342;2023-03-12T08:31:14;28.90;;;15.37;;
61640;SDS011;62201;49.966;8.342;2023-03-12T08:33:39;28.57;;;17.80;;
61640;SDS011;62201;49.966;8.342;2023-03-12T08:36:07;37.97;;;21.67;;
61640;SDS011;62201;49.966;8.342;2023-03-12T08:38:33;27.43;;;15.80;;
61640;SDS011;62201;49.966;8.342;2023-03-12T08:40:59;30.77;;;17.53;;
61640;SDS011;62201;49.966;8.342;2023-03-12T08:43:25;30.63;;;17.97;;
61640;SDS011;62201;49.966;8.342;2023-03-12T08:45:55;27.77;;;17.53;;
61640;SDS011;62201;49.966;8.342;2023-03-12T08:48:21;33.43;;;20.80;;
61640;SDS011;62201;49.966;8.342;2023-03-12T08:50:46;35.00;;;20.27;;
61640;SDS011;62201;49.966;8.342;2023-03-12T08:53:12;38.53;;;21.27;;
61640;SDS011;62201;49.966;8.342;2023-03-12T08:55:37;23.57;;;15.87;;
61640;SDS011;62201;49.966;8.342;2023-03-12T08:58:03;27.97;;;17.47;;
61640;SDS011;62201;49.966;8.342;2023-03-12T09:00:28;27.17;;;16.77;;
61640;SDS011;62201;49.966;8.342;2023-03-12T09:02:53;33.73;;;20.50;;
61640;SDS011;62201;49.966;8.342;2023-03-12T09:05:22;28.60;;;16.37;;
61640;SDS011;62201;49.966;8.342;2023-03-12T09:07:48;26.93;;;17.20;;
61640;SDS011;62201;49.966;8.342;2023-03-12T09:10:14;28.93;;;16.00;;
61640;SDS011;62201;49.966;8.342;2023-03-12T09:12:39;29.10;;;16.77;;
61640;SDS011;62201;49.966;8.342;2023-03-12T09:15:05;30.97;;;18.60;;
61640;SDS011;62201;49.966;8.342;2023-03-12T09:17:32;24.60;;;15.90;;
61640;SDS011;62201;49.966;8.342;2023-03-12T09:19:57;26.33;;;14.37;;
61640;SDS011;62201;49.966;8.342;2023-03-12T09:22:24;25.73;;;15.13;;
61640;SDS011;62201;49.966;8.342;2023-03-12T09:24:49;20.37;;;13.60;;
61640;SDS011;62201;49.966;8.342;2023-03-12T09:27:15;24.57;;;13.80;;
61640;SDS011;62201;49.966;8.342;2023-03-12T09:29:40;21.73;;;12.07;;
61640;SDS011;62201;49.966;8.342;2023-03-12T09:32:06;22.63;;;10.47;;
61640;SDS011;62201;49.966;8.342;2023-03-12T09:34:33;20.33;;;11.47;;
61640;SDS011;62201;49.966;8.342;2023-03-12T09:36:59;20.90;;;10.70;;
61640;SDS011;62201;49.966;8.342;2023-03-12T09:39:24;22.17;;;10.70;;
61640;SDS011;62201;49.966;8.342;2023-03-12T09:41:50;22.10;;;10.50;;
61640;SDS011;62201;49.966;8.342;2023-03-12T09:44:22;23.73;;;10.57;;
61640;SDS011;62201;49.966;8.342;2023-03-12T09:46:56;21.93;;;10.30;;
61640;SDS011;62201;49.966;8.342;2023-03-12T09:54:53;21.90;;;11.43;;
61640;SDS011;62201;49.966;8.342;2023-03-12T09:57:26;21.90;;;10.50;;
61640;SDS011;62201;49.966;8.342;2023-03-12T09:59:54;27.73;;;12.00;;
61640;SDS011;62201;49.966;8.342;2023-03-12T10:02:25;20.23;;;10.33;;
61640;SDS011;62201;49.966;8.342;2023-03-12T10:05:09;21.23;;;10.93;;
61640;SDS011;62201;49.966;8.342;2023-03-12T10:07:45;20.23;;;10.47;;
61640;SDS011;62201;49.966;8.342;2023-03-12T10:18:49;19.47;;;11.13;;
61640;SDS011;62201;49.966;8.342;2023-03-12T10:24:19;23.87;;;11.80;;
61640;SDS011;62201;49.966;8.342;2023-03-12T10:26:58;26.03;;;11.60;;
61640;SDS011;62201;49.966;8.342;2023-03-12T10:29:27;25.87;;;12.37;;
61640;SDS011;62201;49.966;8.342;2023-03-12T10:34:29;24.73;;;13.93;;
61640;SDS011;62201;49.966;8.342;2023-03-12T10:37:01;24.30;;;13.27;;
61640;SDS011;62201;49.966;8.342;2023-03-12T10:39:36;28.23;;;15.47;;
61640;SDS011;62201;49.966;8.342;2023-03-12T10:42:04;26.07;;;13.77;;
61640;SDS011;62201;49.966;8.342;2023-03-12T10:44:38;21.10;;;12.83;;
61640;SDS011;62201;49.966;8.342;2023-03-12T10:49:51;21.40;;;13.00;;
61640;SDS011;62201;49.966;8.342;2023-03-12T10:52:18;19.63;;;12.27;;
61640;SDS011;62201;49.966;8.342;2023-03-12T10:54:46;24.27;;;12.43;;
61640;SDS011;62201;49.966;8.342;2023-03-12T10:57:13;20.43;;;12.73;;
61640;SDS011;62201;49.966;8.342;2023-03-12T10:59:40;23.57;;;11.87;;
61640;SDS011;62201;49.966;8.342;2023-03-12T11:04:56;23.23;;;13.27;;
61640;SDS011;62201;49.966;8.342;2023-03-12T11:07:29;19.77;;;12.57;;
61640;SDS011;62201;49.966;8.342;2023-03-12T11:12:56;22.80;;;13.80;;
61640;SDS011;62201;49.966;8.342;2023-03-12T11:15:29;21.00;;;12.17;;
61640;SDS011;62201;49.966;8.342;2023-03-12T11:20:50;23.03;;;13.77;;
61640;SDS011;62201;49.966;8.342;2023-03-12T11:23:39;27.03;;;13.50;;
61640;SDS011;62201;49.966;8.342;2023-03-12T11:26:11;20.15;;;13.05;;
61640;SDS011;62201;49.966;8.342;2023-03-12T11:28:45;19.63;;;12.73;;
61640;SDS011;62201;49.966;8.342;2023-03-12T11:31:27;22.07;;;13.40;;
61640;SDS011;62201;49.966;8.342;2023-03-12T11:34:16;19.58;;;12.20;;
61640;SDS011;62201;49.966;8.342;2023-03-12T11:36:54;20.95;;;12.23;;
61640;SDS011;62201;49.966;8.342;2023-03-12T11:42:23;22.10;;;12.37;;
61640;SDS011;62201;49.966;8.342;2023-03-12T11:50:44;18.57;;;11.70;;
61640;SDS011;62201;49.966;8.342;2023-03-12T11:53:38;17.60;;;11.60;;
61640;SDS011;62201;49.966;8.342;2023-03-12T12:01:57;20.67;;;11.63;;
61640;SDS011;62201;49.966;8.342;2023-03-12T12:04:53;18.23;;;12.00;;
61640;SDS011;62201;49.966;8.342;2023-03-12T12:07:52;18.67;;;11.23;;
61640;SDS011;62201;49.966;8.342;2023-03-12T12:24:36;12.47;;;7.83;;
61640;SDS011;62201;49.966;8.342;2023-03-12T12:27:13;15.50;;;9.35;;
61640;SDS011;62201;49.966;8.342;2023-03-12T12:35:40;12.93;;;9.48;;
61640;SDS011;62201;49.966;8.342;2023-03-12T12:41:17;18.17;;;10.38;;
61640;SDS011;62201;49.966;8.342;2023-03-12T12:46:20;14.35;;;9.10;;
61640;SDS011;62201;49.966;8.342;2023-03-12T12:48:53;11.88;;;8.77;;
61640;SDS011;62201;49.966;8.342;2023-03-12T12:51:25;14.97;;;9.97;;
61640;SDS011;62201;49.966;8.342;2023-03-12T12:54:06;14.50;;;9.27;;
61640;SDS011;62201;49.966;8.342;2023-03-12T12:56:45;14.52;;;10.13;;
61640;SDS011;62201;49.966;8.342;2023-03-12T13:02:04;13.68;;;9.63;;
61640;SDS011;62201;49.966;8.342;2023-03-12T13:04:39;14.73;;;9.25;;
61640;SDS011;62201;49.966;8.342;2023-03-12T13:12:50;16.50;;;10.23;;
61640;SDS011;62201;49.966;8.342;2023-03-12T13:14:57;15.32;;;10.68;;
61640;SDS011;62201;49.966;8.342;2023-03-12T13:22:53;15.07;;;9.45;;
61640;SDS011;62201;49.966;8.342;2023-03-12T13:30:56;15.77;;;9.85;;
61640;SDS011;62201;49.966;8.342;2023-03-12T13:33:39;15.82;;;9.77;;
61640;SDS011;62201;49.966;8.342;2023-03-12T13:36:20;13.85;;;9.73;;
61640;SDS011;62201;49.966;8.342;2023-03-12T13:38:52;11.90;;;9.30;;
61640;SDS011;62201;49.966;8.342;2023-03-12T13:41:30;15.88;;;10.00;;
61640;SDS011;62201;49.966;8.342;2023-03-12T13:43:58;16.23;;;9.98;;
61640;SDS011;62201;49.966;8.342;2023-03-12T13:46:28;14.65;;;10.95;;
61640;SDS011;62201;49.966;8.342;2023-03-12T13:49:01;16.08;;;9.68;;
61640;SDS011;62201;49.966;8.342;2023-03-12T13:51:29;11.43;;;9.52;;
61640;SDS011;62201;49.966;8.342;2023-03-12T13:53:57;14.35;;;9.45;;
61640;SDS011;62201;49.966;8.342;2023-03-12T13:56:25;20.60;;;11.95;;
61640;SDS011;62201;49.966;8.342;2023-03-12T13:58:54;17.50;;;9.93;;
61640;SDS011;62201;49.966;8.342;2023-03-12T14:01:23;14.90;;;10.68;;
61640;SDS011;62201;49.966;8.342;2023-03-12T14:03:55;16.45;;;10.32;;
61640;SDS011;62201;49.966;8.342;2023-03-12T14:06:24;22.15;;;12.80;;
61640;SDS011;62201;49.966;8.342;2023-03-12T14:09:03;22.40;;;14.45;;
61640;SDS011;62201;49.966;8.342;2023-03-12T14:17:22;15.18;;;10.60;;
61640;SDS011;62201;49.966;8.342;2023-03-12T14:20:10;13.77;;;10.73;;
61640;SDS011;62201;49.966;8.342;2023-03-12T14:22:36;18.73;;;11.13;;
61640;SDS011;62201;49.966;8.342;2023-03-12T14:27:47;14.45;;;10.68;;
61640;SDS011;62201;49.966;8.342;2023-03-12T14:32:44;15.70;;;9.50;;
61640;SDS011;62201;49.966;8.342;2023-03-12T14:35:22;14.15;;;10.25;;
61640;SDS011;62201;49.966;8.342;2023-03-12T14:45:53;14.77;;;11.15;;
61640;SDS011;62201;49.966;8.342;2023-03-12T14:48:21;15.32;;;10.90;;
61640;SDS011;62201;49.966;8.342;2023-03-12T14:50:47;19.15;;;11.15;;
61640;SDS011;62201;49.966;8.342;2023-03-12T14:53:21;15.90;;;11.38;;
61640;SDS011;62201;49.966;8.342;2023-03-12T14:58:41;17.95;;;10.65;;
61640;SDS011;62201;49.966;8.342;2023-03-12T15:01:10;18.45;;;10.00;;
61640;SDS011;62201;49.966;8.342;2023-03-12T15:03:41;17.98;;;11.00;;
61640;SDS011;62201;49.966;8.342;2023-03-12T15:06:12;15.52;;;10.10;;
61640;SDS011;62201;49.966;8.342;2023-03-12T15:08:43;16.98;;;10.27;;
61640;SDS011;62201;49.966;8.342;2023-03-12T15:11:09;15.95;;;9.95;;
61640;SDS011;62201;49.966;8.342;2023-03-12T15:13:36;19.35;;;10.38;;
61640;SDS011;62201;49.966;8.342;2023-03-12T15:16:03;18.25;;;10.60;;
61640;SDS011;62201;49.966;8.342;2023-03-12T15:18:30;17.65;;;10.40;;
61640;SDS011;62201;49.966;8.342;2023-03-12T15:20:56;19.88;;;11.18;;
61640;SDS011;62201;49.966;8.342;2023-03-12T15:23:25;15.15;;;10.07;;
61640;SDS011;62201;49.966;8.342;2023-03-12T15:26:10;17.20;;;10.45;;
61640;SDS011;62201;49.966;8.342;2023-03-12T15:28:36;14.68;;;10.70;;
61640;SDS011;62201;49.966;8.342;2023-03-12T15:33:35;18.40;;;11.18;;
61640;SDS011;62201;49.966;8.342;2023-03-12T15:36:04;16.98;;;11.07;;
61640;SDS011;62201;49.966;8.342;2023-03-12T15:38:42;20.83;;;12.10;;
61640;SDS011;62201;49.966;8.342;2023-03-12T15:41:17;22.27;;;12.27;;
61640;SDS011;62201;49.966;8.342;2023-03-12T15:43:47;25.35;;;12.70;;
61640;SDS011;62201;49.966;8.342;2023-03-12T15:46:16;21.63;;;12.10;;
61640;SDS011;62201;49.966;8.342;2023-03-12T15:48:44;23.13;;;10.75;;
61640;SDS011;62201;49.966;8.342;2023-03-12T15:51:25;23.08;;;11.85;;
61640;SDS011;62201;49.966;8.342;2023-03-12T15:53:57;24.00;;;11.88;;
61640;SDS011;62201;49.966;8.342;2023-03-12T15:56:43;18.50;;;12.15;;
61640;SDS011;62201;49.966;8.342;2023-03-12T16:01:50;18.73;;;11.48;;
61640;SDS011;62201;49.966;8.342;2023-03-12T16:04:17;18.67;;;12.05;;
61640;SDS011;62201;49.966;8.342;2023-03-12T16:06:44;21.02;;;12.48;;
61640;SDS011;62201;49.966;8.342;2023-03-12T16:09:22;27.08;;;12.25;;
61640;SDS011;62201;49.966;8.342;2023-03-12T16:11:50;22.85;;;12.30;;
61640;SDS011;62201;49.966;8.342;2023-03-12T16:14:29;17.73;;;12.38;;
61640;SDS011;62201;49.966;8.342;2023-03-12T16:16:56;20.52;;;12.18;;
61640;SDS011;62201;49.966;8.342;2023-03-12T16:19:22;24.42;;;12.40;;
61640;SDS011;62201;49.966;8.342;2023-03-12T16:21:48;19.55;;;11.73;;
61640;SDS011;62201;49.966;8.342;2023-03-12T16:24:14;20.25;;;12.68;;
61640;SDS011;62201;49.966;8.342;2023-03-12T16:26:51;22.77;;;13.50;;
61640;SDS011;62201;49.966;8.342;2023-03-12T16:29:18;29.98;;;17.25;;
61640;SDS011;62201;49.966;8.342;2023-03-12T16:31:48;25.15;;;17.13;;
61640;SDS011;62201;49.966;8.342;2023-03-12T16:34:18;20.83;;;13.95;;
61640;SDS011;62201;49.966;8.342;2023-03-12T16:36:43;25.77;;;14.38;;
61640;SDS011;62201;49.966;8.342;2023-03-12T16:39:08;24.95;;;14.23;;